Jepson Prairie Reserve, California Weather observations

Data are for 10 minute period ending at time listed.
 Day   Time   Solar   Ave.   Ave.  Ave.  Vector  Max.   Baro.   Total    
  of    of     Rad.   Air    Rel.  Wind   Wind   Wind  Press.  Precip.   
Year   Day            Temp.  Hum.  Speed  Dir.   Gust                    
2017   (PST)  Kw/m2    F      %     mph   deg.    mph    mb.     in.     
-------------------------------------------------------------------------
 293    0:00   0.00   55.1    93   11.5   226    14.8   1009.5    0.01 
 293    0:10   0.00   54.7    94   10.8   219    13.4   1009.8    0.02 
 293    0:20   0.00   54.4    94    8.0   219    11.0   1009.8    0.01 
 293    0:30   0.00   54.3    94    8.4   226    12.1   1009.8    0.00 
 293    0:40   0.00   53.9    93   10.8   206    13.2   1009.5    0.01 
 293    0:50   0.00   53.3    92   12.5   208    15.6   1009.1    0.00 
 293    1:00   0.00   53.2    90   11.8   208    14.5   1009.5    0.00 
 293    1:10   0.00   53.0    90   10.6   214    13.1   1009.5    0.00 
 293    1:20   0.00   53.1    90   10.9   217    12.5   1009.8    0.00 
 293    1:30   0.00   53.3    90   13.8   214    17.0   1010.2    0.00 
 293    1:40   0.00   53.6    91   13.2   212    15.3   1010.5    0.00 
 293    1:50   0.00   53.7    91   11.6   210    14.0   1011.2    0.00 
 293    2:00   0.00   53.4    91   12.9   214    16.4   1011.5    0.00 
 293    2:10   0.00   52.6    90   12.5   211    15.3   1011.5    0.00 
 293    2:20   0.00   51.7    90   10.1   220    12.9   1011.9    0.00 
 293    2:30   0.00   51.3    91    9.4   214    12.5   1011.9    0.00 
 293    2:40   0.00   51.3    91    8.9   208    11.3   1012.2    0.00 
 293    2:50   0.00   50.9    92   11.7   200    14.9   1012.2    0.00 
 293    3:00   0.00   50.6    92   14.3   206    16.1   1012.2    0.00 
 293    3:10   0.00   50.3    93   14.8   218    17.4   1011.9    0.00 
 293    3:20   0.00   50.3    93   16.3   227    19.6   1011.9    0.00 
 293    3:30   0.00   50.4    93   13.1   224    17.9   1012.2    0.00 
 293    3:40   0.00   50.1    93   10.8   232    13.9   1012.5    0.00 
 293    3:50   0.00   50.0    93   12.5   229    19.1   1012.5    0.00 
 293    4:00   0.00   49.8    94   15.1   234    17.9   1012.5    0.00 
 293    4:10   0.00   49.5    94   18.2   236    22.2   1012.9    0.00 
 293    4:20   0.00   49.7    94   18.2   233    20.8   1012.9    0.00 
 293    4:30   0.00   50.0    94   15.1   231    18.3   1012.9    0.00 
 293    4:40   0.00   49.9    93   12.2   240    15.6   1013.2    0.00 
 293    4:50   0.00   50.1    92   13.1   225    18.0   1013.2    0.00 
 293    5:00   0.00   49.7    92   10.5   225    12.5   1013.2    0.00 
 293    5:10   0.00   49.7    92    9.7   222    11.9   1013.5    0.00 
 293    5:20   0.00   49.1    93    8.2   208    11.4   1013.5    0.00 
 293    5:30   0.00   49.4    94   10.7   195    13.7   1013.5    0.00 
 293    5:40   0.00   49.9    94   13.5   206    16.7   1013.9    0.00 
 293    5:50   0.00   50.1    93   13.8   204    17.5   1013.9    0.00 
 293    6:00   0.00   50.1    93   12.8   202    15.4   1013.9    0.00 
 293    6:10   0.00   49.6    93   10.7   204    12.6   1014.2    0.00 
 293    6:20   0.00   49.5    93   11.3   205    14.5   1014.2    0.00 
 293    6:30   0.01   49.9    93   12.1   209    15.2   1014.6    0.00 
 293    6:40   0.01   49.7    93   10.4   211    13.7   1014.6    0.00 
 293    6:50   0.02   49.5    93   10.1   212    12.1   1014.6    0.00 
 293    7:00   0.05   49.7    93   10.8   217    13.4   1014.6    0.00 
 293    7:10   0.11   51.0    93   12.3   212    15.1   1014.6    0.00 
 293    7:20   0.08   51.7    93   10.2   214    13.1   1014.9    0.00 
 293    7:30   0.07   51.9    92    8.3   222    11.7   1014.9    0.00 
 293    7:40   0.10   52.2    92    6.7   218     8.2   1015.2    0.00 
 293    7:50   0.13   52.8    92    9.0   208    11.5   1015.2    0.00 
 293    8:00   0.16   53.7    91   10.2   206    13.0   1015.2    0.00 
 293    8:10   0.24   53.9    91   11.7   201    15.1   1015.6    0.00 
 293    8:20   0.14   54.5    89   11.9   209    15.6   1015.6    0.00 
 293    8:30   0.16   54.7    88    9.9   217    14.0   1015.6    0.00 
 293    8:40   0.28   55.0    88   12.1   209    14.8   1015.6    0.00 
 293    8:50   0.20   55.3    88   13.2   206    15.6   1015.6    0.00 
 293    9:00   0.31   55.6    87   13.1   207    16.1   1015.9    0.00 
 293    9:10   0.34   56.1    86   13.5   214    17.0   1015.9    0.00 
 293    9:20   0.34   56.5    83   11.9   214    14.8   1015.9    0.00 
 293    9:30   0.37   56.8    80   11.2   218    13.6   1015.9    0.00 
 293    9:40   0.29   56.9    77   12.5   228    14.9   1016.3    0.00 
 293    9:50   0.41   57.1    77   12.4   231    15.0   1016.3    0.00 
 293   10:00   0.32   57.1    76   13.0   233    15.5   1016.3    0.00 
 293   10:10   0.33   57.0    77   11.8   230    15.0   1016.3    0.00 
 293   10:20   0.43   57.6    76   12.1   226    15.0   1016.3    0.00 
 293   10:30   0.42   57.8    73   12.6   216    15.6   1016.3    0.00 
 293   10:40   0.35   57.7    72   14.0   223    17.8   1016.6    0.00 
 293   10:50   0.31   58.0    72   12.8   221    17.0   1016.6    0.00 
 293   11:00   0.32   58.1    70   13.8   218    16.7   1016.6    0.00 
 293   11:10   0.34   58.4    68   11.7   224    15.4   1016.3    0.00 
 293   11:20   0.32   58.5    66   12.2   226    15.1   1016.3    0.00 
 293   11:30   0.41   59.0    66   12.0   228    15.9   1016.6    0.00 
 293   11:40   0.58   59.6    64   13.2   236    16.4   1016.3    0.00 
 293   11:50   0.47   60.2    62   13.8   229    18.2   1016.3    0.00 
 293   12:00   0.30   59.5    62   13.5   233    17.8   1016.3    0.00 
 293   12:10   0.24   59.3    63   12.9   227    17.0   1016.3    0.00 
 293   12:20   0.26   59.2    64   13.6   224    17.2   1016.3    0.00 
 293   12:30   0.39   59.8    62   15.5   224    19.6   1016.3    0.00 
 293   12:40   0.50   60.4    60   15.0   229    19.9   1016.6    0.00 
 293   12:50   0.60   61.5    59   14.1   242    18.7   1016.3    0.00 
 293   13:00   0.55   61.7    58   15.3   244    20.9   1016.3    0.00 
 293   13:10   0.49   61.4    56   15.3   245    20.6   1016.6    0.00 
 293   13:20   0.48   61.6    55   18.4   233    22.5   1016.6    0.00 
 293   13:30   0.45   62.1    54   15.1   241    19.6   1016.6    0.00 
 293   13:40   0.53   62.6    52   14.6   242    19.2   1016.6    0.00 
 293   13:50   0.43   62.1    52   13.3   237    18.2   1016.6    0.00 
 293   14:00   0.40   62.8    51   13.4   252    19.1   1016.3    0.00 
 293   14:10   0.30   62.5    51   11.8   256    15.6   1016.3    0.00 
 293   14:20   0.35   62.6    52   13.4   241    18.0   1016.3    0.00 
 293   14:30   0.42   63.1    50   13.4   244    17.5   1016.3    0.00 
 293   14:40   0.33   63.3    50   12.4   240    17.2   1016.6    0.00 
 293   14:50   0.45   63.8    47   12.6   243    19.6   1016.6    0.00 
 293   15:00   0.38   64.1    46   11.8   243    15.2   1016.6    0.00 
 293   15:10   0.31   63.9    45   11.2   263    15.3   1016.6    0.00 
 293   15:20   0.29   64.0    46   10.9   256    15.1   1016.6    0.00 
 293   15:30   0.26   63.9    47   12.1   249    16.8   1016.9    0.00 
 293   15:40   0.21   63.6    46   12.6   250    16.5   1016.9    0.00 
 293   15:50   0.15   63.1    46   12.4   252    15.9   1016.6    0.00 
 293   16:00   0.14   63.2    47   10.8   250    14.7   1016.6    0.00 
 293   16:10   0.14   62.9    48   12.1   253    16.1   1016.6    0.00 
 293   16:20   0.18   63.1    48   14.1   255    18.5   1016.6    0.00 
 293   16:30   0.13   62.8    48   14.8   256    18.4   1016.6    0.00 
 293   16:40   0.12   62.7    48   13.5   256    17.5   1016.6    0.00 
 293   16:50   0.08   62.5    49   12.2   249    16.2   1016.6    0.00 
 293   17:00   0.06   61.6    54   13.4   241    16.4   1016.3    0.00 
 293   17:10   0.04   60.3    58   13.6   234    18.0   1016.3    0.00 
 293   17:20   0.02   59.0    62   14.1   233    18.3   1016.3    0.00 
 293   17:30   0.00   57.8    65   14.2   233    17.2   1016.3    0.00 
 293   17:40   0.00   57.1    67   15.1   238    18.8   1016.3    0.00 
 293   17:50   0.00   56.3    69   13.2   236    17.5   1016.3    0.00 
 293   18:00   0.00   55.4    71   12.6   229    15.5   1016.3    0.00 
 293   18:10   0.00   54.8    73   13.4   227    15.9   1016.3    0.00 
 293   18:20   0.00   54.3    74   12.1   227    14.5   1016.6    0.00 
 293   18:30   0.00   53.5    77   11.8   221    13.3   1016.6    0.00 
 293   18:40   0.00   53.1    78   11.0   226    13.4   1016.6    0.00 
 293   18:50   0.00   52.3    80   10.1   223    12.3   1016.6    0.00 
 293   19:00   0.00   52.1    81    9.8   215    11.6   1016.6    0.00 
 293   19:10   0.00   51.7    81   10.4   215    12.1   1016.6    0.00 
 293   19:20   0.00   51.4    83   11.3   208    13.5   1016.6    0.00 
 293   19:30   0.00   51.8    82   11.1   216    13.1   1016.9    0.00 
 293   19:40   0.00   51.5    82   10.5   210    13.4   1016.9    0.00 
 293   19:50   0.00   50.9    83    9.4   210    10.9   1016.9    0.00 
 293   20:00   0.00   50.4    84    9.3   206    10.6   1017.3    0.00 
 293   20:10   0.00   50.1    85    8.5   194    11.2   1017.3    0.00 
 293   20:20   0.00   49.6    85    8.2   193    10.1   1017.3    0.00 
 293   20:30   0.00   49.6    87    9.4   207    10.9   1017.3    0.00 
 293   20:40   0.00   49.4    86    8.7   203     9.6   1017.3    0.00 
 293   20:50   0.00   49.0    88    9.2   204    10.1   1017.6    0.00 
 293   21:00   0.00   48.8    88    8.2   203     9.2   1017.6    0.00 
 293   21:10   0.00   48.5    88    7.3   207     8.5   1017.6    0.00 
 293   21:20   0.00   47.9    88    7.8   210     8.8   1018.0    0.00 
 293   21:30   0.00   47.3    89    7.2   200     8.8   1018.0    0.00 
 293   21:40   0.00   47.6    90    7.8   206    10.4   1018.0    0.00 
 293   21:50   0.00   47.2    89    5.6   203     6.9   1018.3    0.00 
 293   22:00   0.00   46.7    90    6.6   214     7.7   1018.3    0.00 
 293   22:10   0.00   46.3    90    7.7   215     8.6   1018.3    0.00 
 293   22:20   0.00   46.1    91    7.5   211     9.1   1018.6    0.00 
 293   22:30   0.00   46.1    90    6.0   199    10.0   1018.6    0.00 
 293   22:40   0.00   47.0    92    8.8   196    11.6   1018.6    0.00 
 293   22:50   0.00   46.9    90    6.7   212     8.3   1019.0    0.00 
 293   23:00   0.00   46.7    91    8.8   189    11.1   1019.0    0.00 

Return to Jepson Prairie Reserve graphs page.


Western Regional Climate Center,wrcc@dri.edu